Time;durP1;ratioP1;P1;durP2;ratioP2;P2;SDS_P1;SDS_P2;PMS_P1;PMS_P2;Temp;Humidity;BMP_temperature;BMP_pressure;BME280_temperature;BME280_humidity;BME280_pressure;Samples;Min_cycle;Max_cycle;Signal;HPM_P1;HPM_P2
2020/12/02 00:01:10;;;;;;;;;;;;;;;4.57;100.00;99987.38;5077411;28;20024;-81
2020/12/02 00:03:53;;;;;;;;;;;;;;;4.59;100.00;99995.34;5094287;28;20333;-81
2020/12/02 00:06:20;;;;;;;;;;;;;;;4.61;100.00;99996.56;5076520;28;19925;-81
2020/12/02 00:08:52;;;;;;;;;;;;;;;4.57;100.00;99987.38;5075939;28;20438;-81
2020/12/02 00:11:18;;;;;;;;;;;;;;;4.65;100.00;99978.06;5076718;28;20026;-80
2020/12/02 00:13:46;;;;;;;;;;;;;;;4.69;100.00;99978.16;5094122;28;19924;-81
2020/12/02 00:16:14;;;;;;;;;;;;;;;4.72;100.00;99972.69;5060151;28;19924;-80
2020/12/02 00:18:41;;;;;;;;;;;;;;;4.75;100.00;99960.88;5076698;28;19924;-80
2020/12/02 00:21:07;;;;;;;;;;;;;;;4.78;100.00;99964.88;5076662;28;19924;-80
2020/12/02 00:23:35;;;;;;;;;;;;;;;4.75;100.00;99960.88;5059929;28;19931;-81
2020/12/02 00:26:02;;;;;;;;;;;;;;;4.78;100.00;99953.81;5059464;28;19932;-81
2020/12/02 00:28:28;;;;;;;;;;;;;;;4.69;100.00;99954.03;5042823;28;19924;-81
2020/12/02 00:30:55;;;;;;;;;;;;;;;4.84;100.00;99949.59;5043231;28;19931;-81
2020/12/02 00:33:24;;;;;;;;;;;;;;;4.81;100.00;99944.78;5059418;28;20015;-81
2020/12/02 00:35:52;;;;;;;;;;;;;;;4.83;100.00;99939.69;5059813;28;20375;-80
2020/12/02 00:38:19;;;;;;;;;;;;;;;4.81;100.00;99931.75;5076197;28;20440;-81
2020/12/02 00:40:46;;;;;;;;;;;;;;;4.79;100.00;99936.03;5043427;28;20371;-80
2020/12/02 00:43:14;;;;;;;;;;;;;;;4.76;100.00;99929.25;5094192;28;19924;-81
2020/12/02 00:45:40;;;;;;;;;;;;;;;4.81;100.00;99934.50;5059561;28;19954;-81
2020/12/02 00:48:17;;;;;;;;;;;;;;;4.82;100.00;99916.72;5093966;28;19950;-81
2020/12/02 00:50:45;;;;;;;;;;;;;;;4.85;100.00;99915.19;5059497;28;19931;-81
2020/12/02 00:53:17;;;;;;;;;;;;;;;4.80;100.00;99913.50;5059980;28;19924;-81
2020/12/02 00:55:45;;;;;;;;;;;;;;;4.75;100.00;99911.06;5076258;28;20011;-80
2020/12/02 00:58:14;;;;;;;;;;;;;;;4.82;100.00;99915.91;5075873;28;19924;-81
2020/12/02 01:00:41;;;;;;;;;;;;;;;4.84;100.00;99914.41;5093695;28;20367;-81
2020/12/02 01:03:24;;;;;;;;;;;;;;;4.85;100.00;99910.47;5076184;28;19930;-81
2020/12/02 01:05:52;;;;;;;;;;;;;;;4.85;100.00;99907.69;5076335;28;20287;-81
2020/12/02 01:08:18;;;;;;;;;;;;;;;4.80;100.00;99905.19;5061724;28;19931;-81
2020/12/02 01:10:48;;;;;;;;;;;;;;;4.83;100.00;99898.94;5097578;28;19928;-81
2020/12/02 01:13:14;;;;;;;;;;;;;;;4.82;100.00;99911.19;5079306;28;20297;-81
2020/12/02 01:15:41;;;;;;;;;;;;;;;4.84;100.00;99910.81;5097570;28;19932;-80
2020/12/02 01:18:34;;;;;;;;;;;;;;;4.87;100.00;99897.06;5079488;28;20382;-81
2020/12/02 01:21:22;;;;;;;;;;;;;;;5.02;100.00;99889.81;5078269;28;19924;-81
2020/12/02 01:23:57;;;;;;;;;;;;;;;4.97;100.00;99885.38;5080274;28;19928;-81
2020/12/02 01:26:28;;;;;;;;;;;;;;;4.97;100.00;99881.78;5076993;28;20018;-81
2020/12/02 01:28:55;;;;;;;;;;;;;;;5.07;100.00;99884.75;5063270;28;20034;-81
2020/12/02 01:31:24;;;;;;;;;;;;;;;4.97;100.00;99879.84;5045772;28;19924;-80
2020/12/02 01:33:51;;;;;;;;;;;;;;;4.86;100.00;99872.50;5079419;28;20364;-81
2020/12/02 01:36:21;;;;;;;;;;;;;;;4.86;100.00;99862.19;5046521;28;20034;-80
2020/12/02 01:38:49;;;;;;;;;;;;;;;4.96;100.00;99867.16;5079485;28;19928;-80
2020/12/02 01:41:17;;;;;;;;;;;;;;;4.99;100.00;99866.44;5062891;28;19970;-82
2020/12/02 01:43:44;;;;;;;;;;;;;;;5.01;100.00;99861.31;5062915;28;20499;-81
2020/12/02 01:46:15;;;;;;;;;;;;;;;5.08;100.00;99861.44;5097552;28;19974;-81
2020/12/02 01:49:00;;;;;;;;;;;;;;;5.20;100.00;99857.69;5097305;28;19924;-80
2020/12/02 01:51:30;;;;;;;;;;;;;;;5.56;100.00;99857.13;5079501;28;19970;-80
2020/12/02 01:54:08;;;;;;;;;;;;;;;5.68;100.00;99859.69;5062589;28;19935;-80
2020/12/02 01:56:44;;;;;;;;;;;;;;;5.69;100.00;99857.72;5062520;28;19924;-80
2020/12/02 01:59:16;;;;;;;;;;;;;;;5.68;100.00;99854.16;5062435;28;19981;-80
2020/12/02 02:01:58;;;;;;;;;;;;;;;5.63;100.00;99850.91;5079275;28;20386;-80
2020/12/02 02:04:33;;;;;;;;;;;;;;;5.25;100.00;99847.13;5062158;28;20375;-80
2020/12/02 02:07:00;;;;;;;;;;;;;;;4.98;100.00;99848.19;5097358;28;20007;-80
2020/12/02 02:09:27;;;;;;;;;;;;;;;4.88;100.00;99846.03;5078676;28;19973;-80
2020/12/02 02:12:16;;;;;;;;;;;;;;;4.91;100.00;99839.75;5078893;28;19924;-80
2020/12/02 02:14:49;;;;;;;;;;;;;;;4.98;100.00;99839.09;5095859;28;19924;-80
2020/12/02 02:17:15;;;;;;;;;;;;;;;5.26;100.00;99831.28;5062305;28;19928;-80
2020/12/02 02:19:42;;;;;;;;;;;;;;;5.35;100.00;99835.41;5045324;28;19924;-80
2020/12/02 02:22:08;;;;;;;;;;;;;;;5.18;100.00;99821.25;5061586;28;19924;-80
2020/12/02 02:24:35;;;;;;;;;;;;;;;4.99;100.00;99819.34;5078860;28;19924;-80
2020/12/02 02:27:01;;;;;;;;;;;;;;;4.92;100.00;99810.88;5078741;28;19924;-80
2020/12/02 02:29:31;;;;;;;;;;;;;;;4.87;100.00;99805.66;5078426;28;19923;-81
2020/12/02 02:32:12;;;;;;;;;;;;;;;4.84;100.00;99809.19;5061543;28;19931;-80
2020/12/02 02:34:39;;;;;;;;;;;;;;;4.84;100.00;99805.59;5045247;28;19948;-80
2020/12/02 02:37:09;;;;;;;;;;;;;;;4.70;100.00;99797.03;5094669;28;19995;-80
2020/12/02 02:39:35;;;;;;;;;;;;;;;4.63;100.00;99788.59;5078504;28;19956;-80
2020/12/02 02:42:21;;;;;;;;;;;;;;;4.51;100.00;99789.56;5096092;28;19993;-81
2020/12/02 02:44:48;;;;;;;;;;;;;;;4.47;100.00;99783.13;5061855;28;19924;-80
2020/12/02 02:47:14;;;;;;;;;;;;;;;4.47;100.00;99769.31;5078083;28;20318;-81
2020/12/02 02:49:41;;;;;;;;;;;;;;;4.41;100.00;99773.53;5078138;28;19924;-80
2020/12/02 02:52:08;;;;;;;;;;;;;;;4.33;100.00;99760.72;5096537;28;19931;-80
2020/12/02 02:54:34;;;;;;;;;;;;;;;4.41;100.00;99768.00;5077719;28;20354;-80
2020/12/02 02:57:01;;;;;;;;;;;;;;;4.44;100.00;99763.72;5095441;28;19924;-81
2020/12/02 02:59:27;;;;;;;;;;;;;;;4.48;100.00;99765.38;5078000;28;20278;-80
2020/12/02 03:01:53;;;;;;;;;;;;;;;4.53;100.00;99759.53;5077931;28;20363;-80
2020/12/02 03:04:20;;;;;;;;;;;;;;;4.37;100.00;99758.84;5061002;28;19924;-80
2020/12/02 03:06:47;;;;;;;;;;;;;;;4.31;100.00;99756.72;5077485;28;19971;-80
2020/12/02 03:09:14;;;;;;;;;;;;;;;4.30;100.00;99755.91;5095392;28;19990;-80
2020/12/02 03:11:41;;;;;;;;;;;;;;;4.32;100.00;99753.59;5077022;28;20015;-80
2020/12/02 03:14:09;;;;;;;;;;;;;;;4.43;100.00;99753.81;5095602;28;19931;-80
2020/12/02 03:16:38;;;;;;;;;;;;;;;4.38;100.00;99751.31;5077744;28;20290;-80
2020/12/02 03:19:15;;;;;;;;;;;;;;;4.36;100.00;99753.69;5095475;28;19924;-80
2020/12/02 03:21:41;;;;;;;;;;;;;;;4.36;100.00;99754.44;5077348;28;19931;-80
2020/12/02 03:24:09;;;;;;;;;;;;;;;4.38;100.00;99751.31;5060613;28;20383;-80
2020/12/02 03:26:37;;;;;;;;;;;;;;;4.42;100.00;99758.56;5095008;28;20019;-80
2020/12/02 03:29:04;;;;;;;;;;;;;;;4.52;100.00;99757.94;5076965;28;20019;-81
2020/12/02 03:31:30;;;;;;;;;;;;;;;4.72;100.00;99759.50;5060266;28;19924;-80
2020/12/02 03:33:57;;;;;;;;;;;;;;;4.76;100.00;99751.25;5095432;28;19971;-81
2020/12/02 03:36:24;;;;;;;;;;;;;;;4.69;100.00;99746.41;5077072;28;19924;-81
2020/12/02 03:38:51;;;;;;;;;;;;;;;4.65;100.00;99745.53;5076475;28;19928;-81
2020/12/02 03:41:18;;;;;;;;;;;;;;;4.56;100.00;99742.19;5094802;28;20371;-80
2020/12/02 03:43:45;;;;;;;;;;;;;;;4.48;100.00;99734.94;5095100;28;20335;-80
2020/12/02 03:46:12;;;;;;;;;;;;;;;4.40;100.00;99737.94;5077009;28;19924;-80
2020/12/02 03:48:38;;;;;;;;;;;;;;;4.38;100.00;99741.06;5076874;28;19993;-80
2020/12/02 03:51:05;;;;;;;;;;;;;;;4.31;100.00;99738.16;5060179;28;20280;-80
2020/12/02 03:53:32;;;;;;;;;;;;;;;4.33;100.00;99737.81;5094685;28;19971;-80
2020/12/02 03:56:00;;;;;;;;;;;;;;;4.33;100.00;99735.81;5076640;28;20417;-80
2020/12/02 03:58:26;;;;;;;;;;;;;;;4.49;100.00;99735.72;5060267;28;20377;-80
2020/12/02 04:00:53;;;;;;;;;;;;;;;4.49;100.00;99747.59;5076806;28;19931;-81
2020/12/02 04:03:19;;;;;;;;;;;;;;;4.51;100.00;99753.59;5094912;28;20367;-81
2020/12/02 04:05:46;;;;;;;;;;;;;;;4.50;100.00;99759.50;5094633;28;19930;-80
2020/12/02 04:08:12;;;;;;;;;;;;;;;4.54;100.00;99752.84;5043622;28;19970;-80
2020/12/02 04:10:38;;;;;;;;;;;;;;;4.53;100.00;99748.47;5076181;28;19974;-80
2020/12/02 04:13:05;;;;;;;;;;;;;;;4.48;100.00;99740.47;5060034;28;20028;-80
2020/12/02 04:15:31;;;;;;;;;;;;;;;4.57;100.00;99732.75;5076515;28;20310;-80
2020/12/02 04:17:58;;;;;;;;;;;;;;;4.55;100.00;99729.53;5043185;28;20415;-80
2020/12/02 04:20:24;;;;;;;;;;;;;;;4.49;100.00;99725.47;5076745;28;19924;-80
2020/12/02 04:22:52;;;;;;;;;;;;;;;4.46;100.00;99720.66;5076646;28;19924;-80
2020/12/02 04:25:21;;;;;;;;;;;;;;;4.51;100.00;99712.06;5076436;28;19946;-80
2020/12/02 04:27:47;;;;;;;;;;;;;;;4.55;100.00;99718.47;5076526;28;20316;-80
2020/12/02 04:30:14;;;;;;;;;;;;;;;4.63;100.00;99702.78;5094679;28;19931;-80
2020/12/02 04:32:40;;;;;;;;;;;;;;;4.54;100.00;99705.81;5076609;28;19964;-80
2020/12/02 04:35:07;;;;;;;;;;;;;;;4.61;100.00;99711.44;5059590;28;19967;-80
2020/12/02 04:37:35;;;;;;;;;;;;;;;4.59;100.00;99707.47;5076105;28;20026;-80
2020/12/02 04:40:01;;;;;;;;;;;;;;;4.55;100.00;99693.56;5076130;28;19931;-80
2020/12/02 04:42:32;;;;;;;;;;;;;;;4.59;100.00;99686.09;5062236;28;19924;-80
2020/12/02 04:44:59;;;;;;;;;;;;;;;4.61;100.00;99689.31;5080306;28;19924;-80
2020/12/02 04:47:33;;;;;;;;;;;;;;;4.63;100.00;99675.91;5063723;28;20058;-80
2020/12/02 04:49:59;;;;;;;;;;;;;;;4.60;100.00;99676.66;5098119;28;19924;-80
2020/12/02 04:52:26;;;;;;;;;;;;;;;4.59;100.00;99663.97;5079737;28;20279;-80
2020/12/02 04:54:52;;;;;;;;;;;;;;;4.58;100.00;99667.09;5080085;28;19956;-80
2020/12/02 04:57:19;;;;;;;;;;;;;;;4.53;100.00;99662.66;5080309;28;19955;-80
2020/12/02 04:59:46;;;;;;;;;;;;;;;4.48;100.00;99657.47;5098172;28;19924;-80
2020/12/02 05:02:26;;;;;;;;;;;;;;;4.70;100.00;99642.81;5098098;28;19931;-80
2020/12/02 05:04:56;;;;;;;;;;;;;;;4.61;100.00;99641.44;5079738;28;19931;-80
2020/12/02 05:07:25;;;;;;;;;;;;;;;4.64;100.00;99644.28;5097861;28;19963;-80
2020/12/02 05:10:09;;;;;;;;;;;;;;;4.68;100.00;99639.59;5046459;28;20018;-80
2020/12/02 05:12:44;;;;;;;;;;;;;;;4.68;100.00;99622.22;5080011;28;20073;-80
2020/12/02 05:15:22;;;;;;;;;;;;;;;4.90;100.00;99624.94;5063059;28;19974;-80
2020/12/02 05:18:07;;;;;;;;;;;;;;;5.03;100.00;99625.50;5046209;28;19924;-80
2020/12/02 05:20:34;;;;;;;;;;;;;;;4.91;100.00;99620.97;5079732;28;19924;-80
2020/12/02 05:23:08;;;;;;;;;;;;;;;5.37;100.00;99614.16;5046209;28;19924;-80
2020/12/02 05:25:34;;;;;;;;;;;;;;;5.85;100.00;99619.88;5063181;28;19946;-80
2020/12/02 05:28:01;;;;;;;;;;;;;;;5.86;100.00;99610.41;5097405;28;19981;-80
2020/12/02 05:30:29;;;;;;;;;;;;;;;5.97;100.00;99606.56;5079546;28;19935;-80
2020/12/02 05:33:11;;;;;;;;;;;;;;;6.26;100.00;99604.88;5062838;28;19955;-80
2020/12/02 05:36:07;;;;;;;;;;;;;;;6.40;100.00;99605.81;5063220;28;19949;-80
2020/12/02 05:38:36;;;;;;;;;;;;;;;6.52;100.00;99605.53;5070306;28;19999;-80
2020/12/02 05:41:04;;;;;;;;;;;;;;;6.57;100.00;99615.47;5062518;28;20014;-80
2020/12/02 05:43:38;;;;;;;;;;;;;;;6.62;100.00;99607.59;5079039;28;19928;-80
2020/12/02 05:46:10;;;;;;;;;;;;;;;6.64;100.00;99596.91;5097421;28;19931;-80
2020/12/02 05:48:39;;;;;;;;;;;;;;;6.65;100.00;99594.94;5097140;28;20355;-80
2020/12/02 05:51:12;;;;;;;;;;;;;;;6.64;100.00;99585.78;5062264;28;19924;-80
2020/12/02 05:53:59;;;;;;;;;;;;;;;6.71;100.00;99596.19;5078220;28;19924;-80
2020/12/02 05:56:26;;;;;;;;;;;;;;;6.71;100.00;99582.28;5078716;28;19947;-80
2020/12/02 05:58:52;;;;;;;;;;;;;;;6.72;100.00;99581.09;5079101;28;19970;-80
2020/12/02 06:01:20;;;;;;;;;;;;;;;6.79;100.00;99570.03;5079313;28;20276;-80
2020/12/02 06:03:50;;;;;;;;;;;;;;;6.79;100.00;99570.03;5062317;28;19932;-81
2020/12/02 06:06:17;;;;;;;;;;;;;;;6.70;100.00;99569.56;5062013;28;19932;-81
2020/12/02 06:08:45;;;;;;;;;;;;;;;6.71;100.00;99557.28;5078665;28;19985;-81
2020/12/02 06:11:15;;;;;;;;;;;;;;;6.78;100.00;99560.09;5096645;28;19924;-80
2020/12/02 06:13:48;;;;;;;;;;;;;;;6.59;100.00;99549.25;5096893;28;19924;-80
2020/12/02 06:16:33;;;;;;;;;;;;;;;6.60;100.00;99553.63;5061926;28;19924;-80
2020/12/02 06:19:16;;;;;;;;;;;;;;;6.69;100.00;99541.00;5096599;28;19931;-80
2020/12/02 06:21:46;;;;;;;;;;;;;;;6.68;100.00;99531.06;5078553;28;19943;-80
2020/12/02 06:24:32;;;;;;;;;;;;;;;6.66;100.00;99521.53;5062187;28;19960;-80
2020/12/02 06:27:01;;;;;;;;;;;;;;;6.65;100.00;99508.84;5071520;28;19924;-80
2020/12/02 06:29:27;;;;;;;;;;;;;;;6.60;100.00;99511.97;5045198;28;19927;-80
2020/12/02 06:32:10;;;;;;;;;;;;;;;6.61;100.00;99500.50;5078478;28;19979;-80
2020/12/02 06:34:37;;;;;;;;;;;;;;;6.66;100.00;99500.13;5078356;28;19956;-81
2020/12/02 06:37:17;;;;;;;;;;;;;;;6.62;100.00;99495.75;5077994;28;20015;-80
2020/12/02 06:39:54;;;;;;;;;;;;;;;6.60;100.00;99498.91;5078476;28;19924;-80
2020/12/02 06:42:39;;;;;;;;;;;;;;;6.62;100.00;99484.63;5078372;28;19925;-81
2020/12/02 06:45:09;;;;;;;;;;;;;;;6.66;100.00;99483.47;5095974;28;19939;-80
2020/12/02 06:47:50;;;;;;;;;;;;;;;6.60;100.00;99478.66;5044792;28;20014;-80
2020/12/02 06:50:18;;;;;;;;;;;;;;;6.62;100.00;99481.88;5089052;28;20016;-78
2020/12/02 06:52:46;;;;;;;;;;;;;;;6.59;100.00;99458.41;5093041;28;19924;-83
2020/12/02 06:55:23;;;;;;;;;;;;;;;6.60;100.00;99457.25;5091232;28;20435;-80
2020/12/02 06:57:56;;;;;;;;;;;;;;;6.69;100.00;99443.00;5081435;28;19924;-82
2020/12/02 07:00:39;;;;;;;;;;;;;;;6.73;100.00;99443.81;5097151;28;19931;-82
2020/12/02 07:03:17;;;;;;;;;;;;;;;6.73;100.00;99466.03;5078997;28;19931;-89
2020/12/02 07:05:45;;;;;;;;;;;;;;;6.80;100.00;100032.75;5032766;28;20623;-89
2020/12/02 07:08:13;;;;;;;;;;;;;;;6.84;100.00;100030.81;5059325;28;20011;-90
2020/12/02 07:10:41;;;;;;;;;;;;;;;6.85;100.00;100046.28;5023828;28;19924;-89
2020/12/02 07:13:15;;;;;;;;;;;;;;;6.77;100.00;100044.59;5059607;28;20007;-89
2020/12/02 07:15:42;;;;;;;;;;;;;;;6.84;100.00;100047.47;5059405;28;20398;-91
2020/12/02 07:18:14;;;;;;;;;;;;;;;6.76;100.00;100048.53;5042703;28;19924;-85
2020/12/02 07:20:45;;;;;;;;;;;;;;;6.83;100.00;100068.88;5026260;28;19924;-87
2020/12/02 07:23:13;;;;;;;;;;;;;;;6.92;100.00;100097.19;5042279;28;19924;-77
2020/12/02 07:25:40;;;;;;;;;;;;;;;6.97;99.96;100088.53;5073652;28;19928;-80
2020/12/02 07:28:13;;;;;;;;;;;;;;;6.97;99.52;100380.31;5074455;28;20002;-83
2020/12/02 07:30:41;;;;;;;;;;;;;;;6.97;98.96;100433.13;5073894;28;20363;-84
2020/12/02 07:33:19;;;;;;;;;;;;;;;6.93;99.19;100437.81;5073583;28;19935;-84
2020/12/02 07:35:47;;;;;;;;;;;;;;;6.96;98.45;100526.00;5073718;28;19967;-84
2020/12/02 07:38:15;;;;;;;;;;;;;;;6.93;98.13;100978.91;5043116;28;19924;-80
2020/12/02 07:40:42;;;;;;;;;;;;;;;6.91;97.90;100986.78;5059774;28;20019;-79
2020/12/02 07:43:11;;;;;;;;;;;;;;;6.89;97.96;100986.34;5076611;28;20429;-79
2020/12/02 07:45:38;;;;;;;;;;;;;;;6.88;97.76;100973.59;5094581;28;19931;-79
2020/12/02 07:48:12;;;;;;;;;;;;;;;6.87;97.47;100977.53;5095297;28;19924;-80
2020/12/02 07:50:43;;;;;;;;;;;;;;;6.84;96.90;100975.47;5076776;28;19924;-81
2020/12/02 07:53:13;;;;;;;;;;;;;;;6.83;96.97;100976.66;5110077;28;19927;-82
2020/12/02 07:55:41;;;;;;;;;;;;;;;6.80;97.20;100963.47;5059997;28;19931;-82
2020/12/02 07:58:29;;;;;;;;;;;;;;;6.77;97.41;100961.38;5026718;28;19928;-82
2020/12/02 08:00:57;;;;;;;;;;;;;;;6.77;97.29;100969.72;5094471;28;19956;-82
2020/12/02 08:03:26;;;;;;;;;;;;;;;6.77;97.30;100959.41;5059954;28;19924;-82
2020/12/02 08:06:01;;;;;;;;;;;;;;;6.79;96.58;100959.03;5059628;28;20085;-82
2020/12/02 08:08:28;;;;;;;;;;;;;;;6.81;96.35;100967.84;5076299;28;19928;-82
2020/12/02 08:11:07;;;;;;;;;;;;;;;6.80;96.19;100960.69;5094203;28;19924;-82
2020/12/02 08:13:36;;;;;;;;;;;;;;;6.78;96.14;100968.56;5076549;28;19924;-83
2020/12/02 08:16:03;;;;;;;;;;;;;;;6.80;95.78;100963.47;5109520;28;19947;-83
2020/12/02 08:18:31;;;;;;;;;;;;;;;6.82;95.55;100959.16;5042995;28;19938;-83
2020/12/02 08:21:07;;;;;;;;;;;;;;;6.80;95.49;100955.13;5077194;28;19974;-83
2020/12/02 08:23:35;;;;;;;;;;;;;;;6.80;95.35;100966.25;5059282;28;19930;-83
2020/12/02 08:26:23;;;;;;;;;;;;;;;6.78;95.27;100963.81;5094747;28;19924;-83
2020/12/02 08:28:52;;;;;;;;;;;;;;;6.82;94.61;100958.34;5081131;28;19925;-84
2020/12/02 08:31:22;;;;;;;;;;;;;;;6.84;94.33;100944.91;5094939;28;20291;-82
2020/12/02 08:34:08;;;;;;;;;;;;;;;6.86;94.11;100940.59;5076054;28;19924;-82
2020/12/02 08:36:35;;;;;;;;;;;;;;;6.84;94.21;100933.78;5059037;28;19928;-83
2020/12/02 08:39:02;;;;;;;;;;;;;;;6.87;93.45;100917.22;5076697;28;19924;-82
2020/12/02 08:41:37;;;;;;;;;;;;;;;6.89;93.40;100908.53;5059846;28;19977;-82
2020/12/02 08:44:09;;;;;;;;;;;;;;;6.89;93.26;100902.97;5059270;28;20042;-81
2020/12/02 08:46:51;;;;;;;;;;;;;;;6.83;93.53;100901.63;5094243;28;19924;-82
2020/12/02 08:49:20;;;;;;;;;;;;;;;6.81;93.54;100890.03;5075839;28;19974;-82
2020/12/02 08:51:46;;;;;;;;;;;;;;;6.79;93.65;100893.19;5093772;28;19924;-81
2020/12/02 08:54:15;;;;;;;;;;;;;;;6.80;93.16;100883.66;5059617;28;19931;-81
2020/12/02 08:56:42;;;;;;;;;;;;;;;6.80;93.33;100886.44;5059243;28;19924;-82
2020/12/02 08:59:11;;;;;;;;;;;;;;;6.80;93.25;100882.88;5076117;28;19946;-81
2020/12/02 09:01:38;;;;;;;;;;;;;;;6.80;93.22;100877.31;5042328;28;19928;-81
2020/12/02 09:04:04;;;;;;;;;;;;;;;6.84;93.04;100878.22;5075708;28;19924;-81
2020/12/02 09:06:31;;;;;;;;;;;;;;;6.84;93.08;100883.78;5061886;28;19924;-81
2020/12/02 09:08:57;;;;;;;;;;;;;;;6.84;93.57;100884.59;5102757;28;20395;-81
2020/12/02 09:11:36;;;;;;;;;;;;;;;6.89;92.95;100897.41;5087319;28;19924;-81
2020/12/02 09:14:04;;;;;;;;;;;;;;;6.89;94.03;100875.19;5081747;28;19924;-81
2020/12/02 09:16:32;;;;;;;;;;;;;;;6.89;92.82;100886.31;5092557;28;19950;-81
2020/12/02 09:18:59;;;;;;;;;;;;;;;6.89;93.38;100869.63;5093687;28;19924;-81
2020/12/02 09:21:26;;;;;;;;;;;;;;;6.92;92.80;100875.25;5092658;28;19928;-81
2020/12/02 09:23:53;;;;;;;;;;;;;;;6.96;92.39;100875.38;5092502;28;19931;-82
2020/12/02 09:26:22;;;;;;;;;;;;;;;6.97;91.99;100871.41;5092111;28;19930;-83
2020/12/02 09:28:49;;;;;;;;;;;;;;;6.94;92.20;100861.84;5060203;28;19930;-83
2020/12/02 09:31:17;;;;;;;;;;;;;;;6.92;92.69;100864.16;5075942;27;19936;-76
2020/12/02 09:33:45;;;;;;;;;;;;;;;6.93;92.42;100857.44;5081909;28;19924;-81
2020/12/02 09:36:16;;;;;;;;;;;;;;;6.94;92.14;100866.56;5125448;27;20027;-81
2020/12/02 09:38:44;;;;;;;;;;;;;;;6.93;92.26;100860.22;5065866;28;19928;-82
2020/12/02 09:41:14;;;;;;;;;;;;;;;6.94;92.15;100850.72;5062988;28;19924;-81
2020/12/02 09:44:00;;;;;;;;;;;;;;;6.94;92.29;100845.16;5079383;28;19931;-81
2020/12/02 09:46:29;;;;;;;;;;;;;;;6.92;92.48;100846.69;5032081;28;19931;-82
2020/12/02 09:48:55;;;;;;;;;;;;;;;6.94;92.43;100858.22;5062047;28;20018;-81
2020/12/02 09:51:24;;;;;;;;;;;;;;;6.86;93.42;100859.22;5078911;28;19925;-82
2020/12/02 09:53:51;;;;;;;;;;;;;;;6.87;93.05;100861.66;5063634;28;19924;-79
2020/12/02 09:56:18;;;;;;;;;;;;;;;6.89;92.64;100875.19;5113947;27;20363;-78
2020/12/02 09:58:45;;;;;;;;;;;;;;;6.91;92.64;100879.22;5095772;28;20375;-79
2020/12/02 10:01:15;;;;;;;;;;;;;;;6.94;92.53;100877.69;5096841;28;19924;-79
2020/12/02 10:03:44;;;;;;;;;;;;;;;6.91;92.68;100870.06;5078889;28;19924;-79
2020/12/02 10:06:22;;;;;;;;;;;;;;;6.94;92.30;100855.44;5067324;28;19928;-76
2020/12/02 10:09:08;;;;;;;;;;;;;;;6.94;92.48;100849.91;5076377;28;19931;-75
2020/12/02 10:11:46;;;;;;;;;;;;;;;6.87;93.25;100850.53;5094180;28;20450;-79
2020/12/02 10:14:21;;;;;;;;;;;;;;;6.86;93.10;100856.44;5113602;28;19931;-83
2020/12/02 10:17:16;;;;;;;;;;;;;;;6.90;92.61;100849.00;5066209;28;19932;-83
2020/12/02 10:19:45;;;;;;;;;;;;;;;6.96;91.91;100859.50;5046493;28;19924;-83
2020/12/02 10:22:21;;;;;;;;;;;;;;;6.96;92.38;100858.69;5057022;28;19947;-76
2020/12/02 10:25:07;;;;;;;;;;;;;;;6.97;92.66;100865.84;5056548;28;19928;-75
2020/12/02 10:27:33;;;;;;;;;;;;;;;6.96;92.57;100856.72;5093834;28;19931;-76
2020/12/02 10:30:19;;;;;;;;;;;;;;;6.98;92.46;100823.03;5124387;27;19931;-76
2020/12/02 10:32:56;;;;;;;;;;;;;;;7.02;91.99;100830.28;5087577;28;19932;-74
2020/12/02 10:35:23;;;;;;;;;;;;;;;7.05;91.77;100817.63;5093945;28;20436;-74
2020/12/02 10:37:52;;;;;;;;;;;;;;;7.06;91.50;100802.56;5101899;28;20686;-79
2020/12/02 10:40:19;;;;;;;;;;;;;;;7.11;90.85;100796.75;5111183;28;20335;-74
2020/12/02 10:43:01;;;;;;;;;;;;;;;7.14;90.45;100807.16;5112124;28;19924;-75
2020/12/02 10:45:28;;;;;;;;;;;;;;;7.15;91.34;100826.25;5093702;28;19932;-76
2020/12/02 10:47:54;;;;;;;;;;;;;;;7.12;91.89;100818.63;5099516;28;20013;-75
2020/12/02 10:50:24;;;;;;;;;;;;;;;7.17;91.50;100817.56;5076808;28;19927;-75
2020/12/02 10:52:52;;;;;;;;;;;;;;;7.14;91.63;100812.72;5078074;28;20315;-75
2020/12/02 10:55:20;;;;;;;;;;;;;;;7.11;92.09;100797.56;5089957;28;19924;-74
2020/12/02 10:57:57;;;;;;;;;;;;;;;7.12;91.93;100815.03;5072875;28;19927;-75
2020/12/02 11:00:24;;;;;;;;;;;;;;;7.19;91.53;100818.00;5096782;28;19931;-75
2020/12/02 11:03:26;;;;;;;;;;;;;;;7.21;91.55;100815.66;5087780;28;20264;-75
2020/12/02 11:06:13;;;;;;;;;;;;;;;7.20;91.69;100802.94;5047962;28;19925;-74
2020/12/02 11:08:39;;;;;;;;;;;;;;;7.24;91.73;100799.06;5032055;28;19924;-78
2020/12/02 11:11:22;;;;;;;;;;;;;;;7.24;91.81;100792.69;5009307;28;20016;-75
2020/12/02 11:14:15;;;;;;;;;;;;;;;7.26;91.46;100782.84;5020479;28;19925;-75
2020/12/02 11:16:58;;;;;;;;;;;;;;;7.27;91.62;100776.09;5005590;28;19929;-75
2020/12/02 11:19:36;;;;;;;;;;;;;;;7.31;91.53;100781.75;4991360;28;19925;-78
2020/12/02 11:22:13;;;;;;;;;;;;;;;7.32;91.38;100770.28;5007894;28;20514;-76
2020/12/02 11:24:42;;;;;;;;;;;;;;;7.36;90.86;100764.81;4990867;28;19926;-75
2020/12/02 11:27:09;;;;;;;;;;;;;;;7.41;90.60;100763.72;5008428;28;19925;-75
2020/12/02 11:29:36;;;;;;;;;;;;;;;7.34;91.10;100772.69;5008041;28;19930;-76
2020/12/02 11:32:14;;;;;;;;;;;;;;;7.21;92.32;100765.59;4988493;28;20020;-75
2020/12/02 11:34:52;;;;;;;;;;;;;;;6.71;95.08;100758.00;4990749;28;20007;-76
2020/12/02 11:37:42;;;;;;;;;;;;;;;6.65;93.54;100739.19;4990835;28;19925;-76
2020/12/02 11:40:14;;;;;;;;;;;;;;;6.53;93.91;100728.13;5030922;28;19925;-76
2020/12/02 11:43:00;;;;;;;;;;;;;;;6.49;94.71;100716.97;5043642;28;19935;-75
2020/12/02 11:45:28;;;;;;;;;;;;;;;6.42;95.69;100707.63;5051847;28;19924;-80
2020/12/02 11:48:04;;;;;;;;;;;;;;;6.37;96.24;100682.91;5053062;28;19925;-80
2020/12/02 11:50:32;;;;;;;;;;;;;;;6.36;96.17;100681.28;5017934;28;19925;-80
2020/12/02 11:53:04;;;;;;;;;;;;;;;6.44;95.76;100669.19;5035847;28;19925;-80
2020/12/02 11:55:32;;;;;;;;;;;;;;;6.52;95.70;100665.44;5053362;28;19978;-80
2020/12/02 12:02:52;;;;;;;;;;;;;;;6.43;97.94;100648.16;5070449;28;19932;-80
2020/12/02 12:05:24;;;;;;;;;;;;;;;6.42;98.83;100650.09;5063497;28;19925;-79
2020/12/02 12:07:51;;;;;;;;;;;;;;;6.39;99.95;100633.38;5066417;28;19925;-79
2020/12/02 12:10:23;;;;;;;;;;;;;;;6.30;100.00;100607.75;5047298;28;19939;-79
2020/12/02 12:13:03;;;;;;;;;;;;;;;6.30;100.00;100608.53;5088506;28;20209;-80
2020/12/02 12:15:42;;;;;;;;;;;;;;;6.29;99.45;100595.03;5093747;28;19931;-81
2020/12/02 12:18:17;;;;;;;;;;;;;;;6.29;99.49;100586.69;5093564;28;19924;-86
2020/12/02 12:20:49;;;;;;;;;;;;;;;6.28;100.00;100582.31;5076144;28;19924;-85
2020/12/02 12:23:41;;;;;;;;;;;;;;;6.33;100.00;100563.41;5076130;28;19924;-86
2020/12/02 12:26:09;;;;;;;;;;;;;;;6.31;100.00;100546.34;5094522;28;19932;-86
2020/12/02 12:28:39;;;;;;;;;;;;;;;6.31;100.00;100548.28;5076647;28;19924;-85
2020/12/02 12:31:10;;;;;;;;;;;;;;;6.32;100.00;100538.78;5059707;28;20339;-85
2020/12/02 12:33:39;;;;;;;;;;;;;;;6.32;100.00;100517.41;5092885;28;19930;-85
2020/12/02 12:36:13;;;;;;;;;;;;;;;6.31;100.00;100510.25;5075996;28;20069;-85
2020/12/02 12:38:56;;;;;;;;;;;;;;;6.35;100.00;100500.00;5059785;28;19924;-85
2020/12/02 12:41:43;;;;;;;;;;;;;;;6.39;100.00;100484.22;5070071;28;19932;-80
2020/12/02 12:44:12;;;;;;;;;;;;;;;6.38;100.00;100484.59;5061036;28;19931;-79
2020/12/02 12:46:57;;;;;;;;;;;;;;;6.36;100.00;100481.38;5092806;28;20363;-79
2020/12/02 12:49:26;;;;;;;;;;;;;;;6.32;100.00;100461.88;5093237;28;19924;-80
2020/12/02 12:51:55;;;;;;;;;;;;;;;6.33;100.00;100457.13;5094235;28;19931;-80
2020/12/02 12:54:22;;;;;;;;;;;;;;;6.31;100.00;100443.63;5076055;28;19931;-80
2020/12/02 12:56:56;;;;;;;;;;;;;;;6.32;100.00;100438.84;5093832;28;19924;-80
2020/12/02 12:59:24;;;;;;;;;;;;;;;6.32;100.00;100434.09;5093097;28;19975;-81
2020/12/02 13:01:52;;;;;;;;;;;;;;;6.34;100.00;100414.31;5073797;28;19924;-80
2020/12/02 13:04:20;;;;;;;;;;;;;;;6.38;100.00;100415.19;5077978;28;20018;-81
2020/12/02 13:06:46;;;;;;;;;;;;;;;6.42;100.00;100432.75;5075476;28;19994;-82
2020/12/02 13:09:16;;;;;;;;;;;;;;;6.49;100.00;100421.78;5076134;28;19931;-81
2020/12/02 13:12:01;;;;;;;;;;;;;;;6.50;100.00;100398.38;5051222;28;19931;-81